createdAt,value
2018-07-28T00:00:28.851Z,21.40
2018-07-28T00:02:57.710Z,21.50
2018-07-28T00:05:26.627Z,21.50
2018-07-28T00:07:55.547Z,21.40
2018-07-28T00:10:24.515Z,21.40
2018-07-28T00:12:54.070Z,21.40
2018-07-28T00:15:22.969Z,21.40
2018-07-28T00:17:51.915Z,21.30
2018-07-28T00:20:20.823Z,21.40
2018-07-28T00:22:49.696Z,21.30
2018-07-28T00:25:18.555Z,21.30
2018-07-28T00:27:47.471Z,21.30
2018-07-28T00:30:16.384Z,21.20
2018-07-28T00:32:45.219Z,21.20
2018-07-28T00:35:14.079Z,21.20
2018-07-28T00:37:42.931Z,21.20
2018-07-28T00:40:11.787Z,21.20
2018-07-28T00:42:40.725Z,21.20
2018-07-28T00:45:09.628Z,21.20
2018-07-28T00:47:38.541Z,21.20
2018-07-28T00:50:08.248Z,21.20
2018-07-28T00:52:37.071Z,21.20
2018-07-28T00:55:06.410Z,21.20
2018-07-28T00:57:35.359Z,21.30
2018-07-28T01:00:04.348Z,21.30
2018-07-28T01:02:33.175Z,21.30
2018-07-28T01:05:02.075Z,21.30
2018-07-28T01:09:59.366Z,21.30
2018-07-28T01:12:28.182Z,21.40
2018-07-28T01:14:57.102Z,21.40
2018-07-28T01:17:25.921Z,21.40
2018-07-28T01:19:54.815Z,21.40
2018-07-28T01:22:23.803Z,21.50
2018-07-28T01:24:52.747Z,21.50
2018-07-28T01:27:21.679Z,21.60
2018-07-28T01:29:50.512Z,21.70
2018-07-28T01:32:19.354Z,21.70
2018-07-28T01:34:48.167Z,21.70
2018-07-28T01:37:17.027Z,21.60
2018-07-28T01:39:45.840Z,21.70
2018-07-28T01:42:14.755Z,21.70
2018-07-28T01:44:43.614Z,21.70
2018-07-28T01:47:12.483Z,21.70
2018-07-28T01:49:41.295Z,21.80
2018-07-28T01:52:10.203Z,21.80
2018-07-28T01:54:39.022Z,21.80
2018-07-28T01:57:07.867Z,21.80
2018-07-28T01:59:36.738Z,21.80
2018-07-28T02:05:09.743Z,21.80
2018-07-28T02:07:38.861Z,21.80
2018-07-28T02:10:08.218Z,21.80
2018-07-28T02:12:37.043Z,21.80
2018-07-28T02:15:06.739Z,21.80
2018-07-28T02:17:35.575Z,21.80
2018-07-28T02:20:05.379Z,21.70
2018-07-28T02:22:34.340Z,21.70
2018-07-28T02:25:03.168Z,21.70
2018-07-28T02:27:32.059Z,21.60
2018-07-28T02:30:00.888Z,21.60
2018-07-28T02:32:29.734Z,21.50
2018-07-28T02:34:58.600Z,21.50
2018-07-28T02:37:27.520Z,21.50
2018-07-28T02:39:56.375Z,21.40
2018-07-28T02:42:25.320Z,21.30
2018-07-28T02:44:54.176Z,21.30
2018-07-28T02:47:23.025Z,21.30
2018-07-28T02:49:51.834Z,21.20
2018-07-28T02:52:20.670Z,21.10
2018-07-28T02:54:49.492Z,21.10
2018-07-28T02:57:18.378Z,21.10
2018-07-28T02:59:47.204Z,21.10
2018-07-28T03:02:16.183Z,21.10
2018-07-28T03:04:44.972Z,21.10
2018-07-28T03:07:13.766Z,21.00
2018-07-28T03:09:42.651Z,21.00
2018-07-28T03:12:11.492Z,21.00
2018-07-28T03:14:40.347Z,21.00
2018-07-28T03:17:09.148Z,21.00
2018-07-28T03:19:37.978Z,21.00
2018-07-28T03:22:07.093Z,20.90
2018-07-28T03:24:35.947Z,21.00
2018-07-28T03:27:05.177Z,21.00
2018-07-28T03:29:34.104Z,21.00
2018-07-28T03:32:02.967Z,21.10
2018-07-28T03:34:31.761Z,21.20
2018-07-28T03:37:00.597Z,21.20
2018-07-28T03:39:29.482Z,21.20
2018-07-28T03:41:58.978Z,21.20
2018-07-28T03:44:27.819Z,21.20
2018-07-28T03:46:56.733Z,21.30
2018-07-28T03:49:25.588Z,21.30
2018-07-28T03:51:54.450Z,21.40
2018-07-28T03:54:23.293Z,21.50
2018-07-28T03:56:52.152Z,21.50
2018-07-28T03:59:21.081Z,21.50
2018-07-28T04:01:49.931Z,21.60
2018-07-28T04:04:19.028Z,21.60
2018-07-28T04:06:47.762Z,21.70
2018-07-28T04:09:16.559Z,21.80
2018-07-28T04:11:45.359Z,21.80
2018-07-28T04:14:14.171Z,21.90
2018-07-28T04:16:42.994Z,22.00
2018-07-28T04:19:11.819Z,22.00
2018-07-28T04:21:40.653Z,22.00
2018-07-28T04:24:09.754Z,22.00
2018-07-28T04:26:38.575Z,22.10
2018-07-28T04:29:07.376Z,22.10
2018-07-28T04:31:36.188Z,22.10
2018-07-28T04:34:05.082Z,22.20
2018-07-28T04:36:33.907Z,22.20
2018-07-28T04:39:02.866Z,22.20
2018-07-28T04:41:31.745Z,22.20
2018-07-28T04:44:00.591Z,22.30
2018-07-28T04:46:29.409Z,22.30
2018-07-28T04:48:58.260Z,22.30
2018-07-28T04:51:27.079Z,22.40
2018-07-28T04:53:55.898Z,22.40
2018-07-28T04:56:25.031Z,22.40
2018-07-28T04:58:53.899Z,22.50
2018-07-28T05:01:22.820Z,22.60
2018-07-28T05:03:51.650Z,22.70
2018-07-28T05:06:20.527Z,22.70
2018-07-28T05:08:50.213Z,22.70
2018-07-28T05:11:19.088Z,22.80
2018-07-28T05:13:47.880Z,22.80
2018-07-28T05:16:16.744Z,22.90
2018-07-28T05:18:45.889Z,22.90
2018-07-28T05:21:14.792Z,22.90
2018-07-28T05:23:43.667Z,23.00
2018-07-28T05:26:12.483Z,22.90
2018-07-28T05:28:41.354Z,23.10
2018-07-28T05:31:10.210Z,23.10
2018-07-28T05:33:39.078Z,23.20
2018-07-28T05:36:07.907Z,23.20
2018-07-28T05:38:36.710Z,23.30
2018-07-28T05:41:05.528Z,23.30
2018-07-28T05:43:34.374Z,23.40
2018-07-28T05:46:03.211Z,23.40
2018-07-28T05:48:32.023Z,23.40
2018-07-28T05:51:00.878Z,23.50
2018-07-28T05:53:29.707Z,23.60
2018-07-28T05:55:58.551Z,23.70
2018-07-28T05:58:27.426Z,23.70
2018-07-28T06:00:56.243Z,23.80
2018-07-28T06:03:25.107Z,23.90
2018-07-28T06:05:53.984Z,24.00
2018-07-28T06:08:22.805Z,24.10
2018-07-28T06:10:51.753Z,24.20
2018-07-28T06:13:20.548Z,24.20
2018-07-28T06:15:49.372Z,24.20
2018-07-28T06:18:18.183Z,24.30
2018-07-28T06:20:47.055Z,24.40
2018-07-28T06:23:15.980Z,24.60
2018-07-28T06:25:44.821Z,24.70
2018-07-28T06:28:13.598Z,24.80
2018-07-28T06:30:42.452Z,24.80
2018-07-28T06:33:11.302Z,24.90
2018-07-28T06:35:40.147Z,24.90
2018-07-28T06:38:09.032Z,24.90
2018-07-28T06:40:38.097Z,25.00
2018-07-28T06:43:07.146Z,24.90
2018-07-28T06:45:35.998Z,25.00
2018-07-28T06:48:04.905Z,25.00
2018-07-28T06:50:33.726Z,25.10
2018-07-28T06:53:02.558Z,25.20
2018-07-28T06:55:31.418Z,25.30
2018-07-28T06:58:00.262Z,25.40
2018-07-28T07:00:29.156Z,25.60
2018-07-28T07:02:58.079Z,25.60
2018-07-28T07:05:27.046Z,25.50
2018-07-28T07:07:55.850Z,25.50
2018-07-28T07:10:24.697Z,25.60
2018-07-28T07:12:53.595Z,25.80
2018-07-28T07:15:22.467Z,25.80
2018-07-28T07:17:51.338Z,26.00
2018-07-28T07:20:20.159Z,26.10
2018-07-28T07:22:49.013Z,26.20
2018-07-28T07:25:17.830Z,26.30
2018-07-28T07:27:46.664Z,26.50
2018-07-28T07:30:15.610Z,26.70
2018-07-28T07:32:44.406Z,26.50
2018-07-28T07:35:13.264Z,26.50
2018-07-28T07:37:42.075Z,26.50
2018-07-28T07:40:10.917Z,26.60
2018-07-28T07:42:39.781Z,26.60
2018-07-28T07:45:08.620Z,26.70
2018-07-28T07:47:37.554Z,26.70
2018-07-28T07:50:06.426Z,26.80
2018-07-28T07:52:35.274Z,26.80
2018-07-28T07:55:04.147Z,26.80
2018-07-28T07:57:33.089Z,26.70
2018-07-28T08:00:01.913Z,27.00
2018-07-28T08:02:30.824Z,27.00
2018-07-28T08:04:59.732Z,27.20
2018-07-28T08:07:28.599Z,27.20
2018-07-28T08:09:57.474Z,27.20
2018-07-28T08:12:26.373Z,27.30
2018-07-28T08:14:55.218Z,27.30
2018-07-28T08:17:24.030Z,27.50
2018-07-28T08:19:52.858Z,27.50
2018-07-28T08:22:21.738Z,27.70
2018-07-28T08:24:50.616Z,27.90
2018-07-28T08:27:19.470Z,28.20
2018-07-28T08:29:48.295Z,28.50
2018-07-28T08:32:17.152Z,29.00
2018-07-28T08:34:46.007Z,29.00
2018-07-28T08:37:14.830Z,29.00
2018-07-28T08:39:43.690Z,29.00
2018-07-28T08:42:12.522Z,29.10
2018-07-28T08:44:41.358Z,29.30
2018-07-28T08:47:10.415Z,29.50
2018-07-28T08:49:39.318Z,29.70
2018-07-28T08:52:08.232Z,29.80
2018-07-28T08:54:37.066Z,29.80
2018-07-28T08:57:05.914Z,29.70
2018-07-28T08:59:34.860Z,29.70
2018-07-28T09:02:03.750Z,29.30
2018-07-28T09:04:32.570Z,29.30
2018-07-28T09:07:01.394Z,29.40
2018-07-28T09:09:30.203Z,29.60
2018-07-28T09:11:59.968Z,29.40
2018-07-28T09:14:28.780Z,29.20
2018-07-28T09:16:57.695Z,29.20
2018-07-28T09:19:26.603Z,29.10
2018-07-28T09:21:55.471Z,29.30
2018-07-28T09:24:24.304Z,29.70
2018-07-28T09:26:53.125Z,29.70
2018-07-28T09:29:21.946Z,29.60
2018-07-28T09:31:50.783Z,30.00
2018-07-28T09:34:19.671Z,29.80
2018-07-28T09:36:48.572Z,29.50
2018-07-28T09:39:17.463Z,29.30
2018-07-28T09:41:46.260Z,29.20
2018-07-28T09:44:15.115Z,29.20
2018-07-28T09:46:44.017Z,29.00
2018-07-28T09:49:12.863Z,29.30
2018-07-28T09:51:41.717Z,29.30
2018-07-28T09:54:10.570Z,29.20
2018-07-28T09:56:39.504Z,29.30
2018-07-28T09:59:08.394Z,29.70
2018-07-28T10:01:37.298Z,30.10
2018-07-28T10:04:06.114Z,30.40
2018-07-28T10:06:35.096Z,30.40
2018-07-28T10:09:05.832Z,30.60
2018-07-28T10:11:34.808Z,30.60
2018-07-28T10:14:03.709Z,30.70
2018-07-28T10:16:32.561Z,30.30
2018-07-28T10:19:01.421Z,29.90
2018-07-28T10:21:30.304Z,30.50
2018-07-28T10:23:59.152Z,30.80
2018-07-28T10:26:27.997Z,30.80
2018-07-28T10:28:56.835Z,31.10
2018-07-28T10:31:25.688Z,31.40
2018-07-28T10:33:54.706Z,31.10
2018-07-28T10:36:23.603Z,30.90
2018-07-28T10:38:52.458Z,30.70
2018-07-28T10:41:21.362Z,30.70
2018-07-28T10:43:50.171Z,30.50
2018-07-28T10:46:20.470Z,30.60
2018-07-28T10:48:50.447Z,30.70
2018-07-28T10:51:19.302Z,30.90
2018-07-28T10:53:48.412Z,30.60
2018-07-28T10:56:17.230Z,30.30
2018-07-28T10:58:46.043Z,30.40
2018-07-28T11:01:14.858Z,30.20
2018-07-28T11:03:43.807Z,30.40
2018-07-28T11:06:12.646Z,30.60
2018-07-28T11:08:41.515Z,30.90
2018-07-28T11:11:10.377Z,31.20
2018-07-28T11:13:39.316Z,31.30
2018-07-28T11:16:08.171Z,31.40
2018-07-28T11:18:36.996Z,31.40
2018-07-28T11:21:05.886Z,30.90
2018-07-28T11:23:45.626Z,31.20
2018-07-28T11:26:14.611Z,31.60
2018-07-28T11:28:43.511Z,31.80
2018-07-28T11:31:23.343Z,31.40
2018-07-28T11:34:03.235Z,30.90
2018-07-28T11:36:43.066Z,30.70
2018-07-28T11:39:22.806Z,30.70
2018-07-28T11:42:02.480Z,30.40
2018-07-28T11:44:42.334Z,30.50
2018-07-28T11:47:11.804Z,30.60
2018-07-28T11:49:40.699Z,30.50
2018-07-28T11:52:09.559Z,30.40
2018-07-28T11:54:38.398Z,30.30
2018-07-28T11:57:07.324Z,30.00
2018-07-28T11:59:36.165Z,29.90
2018-07-28T12:02:05.072Z,29.90
2018-07-28T12:04:33.863Z,29.70
2018-07-28T12:07:02.675Z,29.70
2018-07-28T12:09:31.520Z,29.50
2018-07-28T12:12:00.344Z,29.40
2018-07-28T12:14:29.206Z,29.40
2018-07-28T12:16:58.004Z,29.50
2018-07-28T12:19:26.841Z,29.50
2018-07-28T12:21:55.715Z,29.50
2018-07-28T12:24:24.649Z,29.60
2018-07-28T12:26:53.521Z,29.30
2018-07-28T12:29:22.413Z,29.10
2018-07-28T12:31:51.257Z,28.40
2018-07-28T12:34:20.101Z,28.30
2018-07-28T12:36:49.025Z,28.00
2018-07-28T12:39:17.824Z,27.70
2018-07-28T12:41:46.841Z,28.00
2018-07-28T12:44:15.651Z,28.00
2018-07-28T12:46:44.581Z,27.50
2018-07-28T12:49:13.478Z,27.50
2018-07-28T12:51:42.286Z,27.60
2018-07-28T12:54:11.105Z,27.50
2018-07-28T12:56:39.955Z,27.40
2018-07-28T12:59:08.779Z,27.20
2018-07-28T13:01:37.630Z,26.30
2018-07-28T13:04:06.936Z,25.30
2018-07-28T13:06:35.806Z,24.80
2018-07-28T13:09:05.811Z,24.30
2018-07-28T13:11:34.655Z,24.10
2018-07-28T13:16:32.262Z,24.20
2018-07-28T13:19:01.070Z,24.40
2018-07-28T13:21:29.881Z,24.50
2018-07-28T13:23:58.807Z,24.30
2018-07-28T13:26:27.698Z,24.50
2018-07-28T13:28:56.625Z,24.30
2018-07-28T13:31:25.426Z,24.30
2018-07-28T13:33:54.539Z,24.30
2018-07-28T13:36:23.454Z,24.70
2018-07-28T13:38:52.275Z,25.30
2018-07-28T13:41:21.099Z,26.10
2018-07-28T13:43:50.251Z,26.70
2018-07-28T13:46:19.062Z,28.90
2018-07-28T13:48:47.954Z,29.50
2018-07-28T13:51:16.798Z,30.40
2018-07-28T13:53:45.674Z,30.70
2018-07-28T13:56:14.562Z,31.40
2018-07-28T13:58:43.403Z,32.50
2018-07-28T14:01:12.289Z,34.40
2018-07-28T14:03:41.136Z,34.00
2018-07-28T14:06:10.345Z,35.40
2018-07-28T14:08:39.110Z,36.60
2018-07-28T14:11:08.349Z,37.40
2018-07-28T14:13:37.238Z,36.90
2018-07-28T14:16:06.167Z,37.50
2018-07-28T14:18:35.079Z,38.10
2018-07-28T14:21:03.963Z,36.30
2018-07-28T14:23:33.045Z,36.30
2018-07-28T14:26:01.943Z,37.40
2018-07-28T14:28:30.862Z,36.70
2018-07-28T14:30:59.745Z,37.40
2018-07-28T14:33:28.585Z,37.10
2018-07-28T14:35:57.421Z,35.20
2018-07-28T14:38:26.330Z,36.40
2018-07-28T14:40:55.226Z,35.50
2018-07-28T14:43:24.094Z,35.30
2018-07-28T14:45:53.165Z,34.10
2018-07-28T14:48:22.799Z,34.10
2018-07-28T14:50:51.794Z,32.90
2018-07-28T14:53:20.645Z,32.80
2018-07-28T14:55:49.495Z,32.50
2018-07-28T14:58:18.724Z,33.10
2018-07-28T15:00:47.526Z,33.00
2018-07-28T15:03:16.365Z,33.30
2018-07-28T15:05:45.221Z,32.50
2018-07-28T15:08:14.011Z,33.30
2018-07-28T15:10:42.806Z,33.00
2018-07-28T15:13:11.627Z,32.10
2018-07-28T15:15:40.574Z,31.10
2018-07-28T15:18:09.416Z,30.50
2018-07-28T15:20:38.290Z,30.00
2018-07-28T15:23:07.163Z,29.30
2018-07-28T15:25:35.991Z,29.00
2018-07-28T15:28:04.870Z,28.50
2018-07-28T15:30:33.748Z,28.40
2018-07-28T15:33:02.610Z,28.30
2018-07-28T15:35:31.462Z,28.10
2018-07-28T15:38:00.367Z,28.00
2018-07-28T15:40:29.222Z,28.00
2018-07-28T15:42:58.067Z,27.50
2018-07-28T15:45:26.931Z,26.90
2018-07-28T15:47:55.971Z,26.40
2018-07-28T15:50:24.773Z,26.20
2018-07-28T15:52:53.668Z,26.00
2018-07-28T15:55:22.544Z,25.80
2018-07-28T15:57:51.386Z,25.80
2018-07-28T16:00:20.347Z,25.80
2018-07-28T16:02:49.834Z,25.60
2018-07-28T16:05:18.963Z,25.60
2018-07-28T16:07:47.943Z,25.70
2018-07-28T16:10:17.098Z,25.70
2018-07-28T16:12:46.110Z,25.60
2018-07-28T16:15:15.015Z,25.50
2018-07-28T16:17:43.896Z,25.60
2018-07-28T16:20:12.784Z,25.60
2018-07-28T16:22:41.679Z,25.60
2018-07-28T16:25:10.502Z,25.60
2018-07-28T16:27:39.355Z,25.70
2018-07-28T16:30:09.124Z,25.70
2018-07-28T16:32:38.003Z,25.60
2018-07-28T16:35:07.161Z,25.60
2018-07-28T16:37:36.023Z,25.50
2018-07-28T16:40:05.129Z,25.50
2018-07-28T16:42:34.830Z,25.50
2018-07-28T16:45:03.726Z,25.60
2018-07-28T16:47:32.562Z,25.60
2018-07-28T16:50:01.381Z,25.60
2018-07-28T16:52:30.234Z,25.60
2018-07-28T16:54:59.142Z,25.70
2018-07-28T16:57:28.023Z,25.70
2018-07-28T16:59:56.882Z,25.60
2018-07-28T17:02:25.714Z,25.70
2018-07-28T17:04:54.587Z,25.80
2018-07-28T17:07:23.419Z,25.80
2018-07-28T17:09:52.271Z,26.00
2018-07-28T17:12:21.107Z,26.10
2018-07-28T17:14:49.926Z,26.20
2018-07-28T17:17:18.812Z,26.20
2018-07-28T17:19:47.747Z,26.20
2018-07-28T17:22:16.587Z,26.20
2018-07-28T17:24:45.428Z,26.20
2018-07-28T17:27:14.270Z,26.20
2018-07-28T17:29:43.121Z,26.30
2018-07-28T17:32:12.034Z,26.10
2018-07-28T17:34:40.896Z,26.10
2018-07-28T17:37:09.803Z,26.00
2018-07-28T17:39:38.664Z,25.90
2018-07-28T17:42:07.563Z,25.90
2018-07-28T17:44:36.418Z,25.80
2018-07-28T17:47:05.307Z,25.80
2018-07-28T17:49:34.154Z,25.70
2018-07-28T17:52:03.975Z,25.60
2018-07-28T17:57:01.282Z,25.60
2018-07-28T17:59:30.113Z,25.60
2018-07-28T18:01:58.914Z,25.50
2018-07-28T18:04:27.831Z,25.50
2018-07-28T18:06:56.728Z,25.40
2018-07-28T18:09:25.579Z,25.30
2018-07-28T18:11:54.470Z,25.20
2018-07-28T18:14:23.338Z,25.10
2018-07-28T18:16:52.142Z,25.10
2018-07-28T18:19:20.955Z,25.10
2018-07-28T18:21:49.931Z,25.10
2018-07-28T18:24:18.765Z,25.00
2018-07-28T18:26:47.586Z,25.10
2018-07-28T18:29:16.473Z,25.10
2018-07-28T18:31:45.323Z,25.00
2018-07-28T18:34:14.197Z,25.00
2018-07-28T18:36:43.106Z,25.10
2018-07-28T18:39:12.423Z,25.10
2018-07-28T18:41:41.308Z,25.00
2018-07-28T18:44:10.448Z,25.00
2018-07-28T18:46:39.361Z,25.10
2018-07-28T18:49:08.157Z,25.10
2018-07-28T18:51:37.019Z,25.10
2018-07-28T18:54:06.006Z,25.10
2018-07-28T18:56:34.854Z,25.00
2018-07-28T18:59:03.853Z,25.00
2018-07-28T19:01:32.713Z,24.90
2018-07-28T19:04:01.511Z,24.80
2018-07-28T19:06:30.314Z,24.70
2018-07-28T19:09:04.245Z,24.70
2018-07-28T19:11:33.115Z,24.60
2018-07-28T19:14:07.078Z,24.60
2018-07-28T19:16:35.895Z,24.60
2018-07-28T19:19:10.044Z,24.50
2018-07-28T19:21:38.882Z,24.40
2018-07-28T19:24:07.701Z,24.40
2018-07-28T19:26:36.582Z,24.30
2018-07-28T19:29:10.493Z,24.20
2018-07-28T19:31:39.339Z,24.20
2018-07-28T19:34:08.202Z,24.20
2018-07-28T19:36:42.111Z,24.10
2018-07-28T19:39:11.314Z,24.00
2018-07-28T19:41:45.375Z,24.00
2018-07-28T19:44:14.269Z,24.00
2018-07-28T19:46:43.074Z,23.90
2018-07-28T19:49:11.894Z,24.00
2018-07-28T19:51:40.747Z,23.90
2018-07-28T19:54:09.669Z,23.90
2018-07-28T19:56:38.485Z,23.80
2018-07-28T19:59:07.362Z,23.80
2018-07-28T20:01:36.294Z,23.80
2018-07-28T20:04:05.226Z,23.70
2018-07-28T20:06:34.134Z,23.70
2018-07-28T20:09:03.074Z,23.70
2018-07-28T20:11:31.886Z,23.70
2018-07-28T20:14:00.759Z,23.60
2018-07-28T20:16:29.616Z,23.60
2018-07-28T20:18:58.424Z,23.50
2018-07-28T20:21:27.289Z,23.50
2018-07-28T20:23:56.191Z,23.50
2018-07-28T20:26:25.125Z,23.50
2018-07-28T20:28:53.921Z,23.50
2018-07-28T20:31:22.758Z,23.50
2018-07-28T20:33:51.627Z,23.40
2018-07-28T20:36:20.486Z,23.40
2018-07-28T20:38:49.327Z,23.40
2018-07-28T20:41:18.278Z,23.40
2018-07-28T20:43:47.043Z,23.40
2018-07-28T20:46:15.889Z,23.40
2018-07-28T20:48:44.706Z,23.40
2018-07-28T20:51:13.554Z,23.50
2018-07-28T20:53:42.430Z,23.50
2018-07-28T20:56:11.358Z,23.50
2018-07-28T20:58:40.175Z,23.50
2018-07-28T21:01:09.218Z,23.50
2018-07-28T21:03:38.159Z,23.40
2018-07-28T21:06:07.059Z,23.40
2018-07-28T21:08:35.887Z,23.40
2018-07-28T21:11:04.791Z,23.40
2018-07-28T21:13:33.629Z,23.30
2018-07-28T21:16:02.452Z,23.20
2018-07-28T21:20:59.750Z,23.20
2018-07-28T21:23:28.583Z,23.20
2018-07-28T21:25:57.406Z,23.10
2018-07-28T21:28:26.209Z,23.10
2018-07-28T21:30:55.020Z,23.10
2018-07-28T21:33:23.875Z,23.10
2018-07-28T21:35:52.758Z,23.00
2018-07-28T21:38:21.667Z,22.90
2018-07-28T21:40:50.491Z,22.90
2018-07-28T21:43:19.405Z,22.90
2018-07-28T21:45:48.211Z,22.80
2018-07-28T21:48:17.038Z,22.80
2018-07-28T21:50:45.894Z,22.80
2018-07-28T21:53:14.838Z,22.80
2018-07-28T21:55:43.694Z,22.70
2018-07-28T21:58:12.598Z,22.80
2018-07-28T22:00:46.672Z,22.80
2018-07-28T22:03:15.654Z,22.70
2018-07-28T22:05:45.303Z,22.70
2018-07-28T22:08:14.167Z,22.70
2018-07-28T22:10:43.008Z,22.80
2018-07-28T22:13:11.830Z,22.80
2018-07-28T22:15:40.666Z,22.80
2018-07-28T22:18:09.711Z,22.80
2018-07-28T22:20:38.580Z,22.90
2018-07-28T22:23:07.445Z,22.90
2018-07-28T22:25:36.316Z,22.90
2018-07-28T22:28:05.187Z,22.80
2018-07-28T22:30:34.028Z,22.90
2018-07-28T22:33:02.955Z,22.80
2018-07-28T22:35:31.772Z,22.80
2018-07-28T22:38:00.642Z,22.80
2018-07-28T22:40:29.491Z,22.80
2018-07-28T22:42:58.347Z,22.80
2018-07-28T22:45:27.169Z,22.80
2018-07-28T22:47:56.052Z,22.80
2018-07-28T22:50:24.911Z,22.70
2018-07-28T22:52:53.783Z,22.70
2018-07-28T22:55:22.723Z,22.70
2018-07-28T22:57:51.545Z,22.70
2018-07-28T23:00:20.348Z,22.60
2018-07-28T23:02:49.237Z,22.60
2018-07-28T23:05:18.182Z,22.50
2018-07-28T23:07:47.071Z,22.50
2018-07-28T23:10:16.026Z,22.50
2018-07-28T23:12:44.878Z,22.40
2018-07-28T23:15:13.699Z,22.40
2018-07-28T23:17:42.915Z,22.30
2018-07-28T23:20:11.766Z,22.30
2018-07-28T23:22:40.594Z,22.30
2018-07-28T23:25:09.399Z,22.30
2018-07-28T23:27:38.235Z,22.20
2018-07-28T23:30:09.480Z,22.20
2018-07-28T23:32:38.700Z,22.20
2018-07-28T23:35:07.870Z,22.20
2018-07-28T23:37:36.752Z,22.20
2018-07-28T23:40:06.604Z,22.20
2018-07-28T23:42:35.470Z,22.20
2018-07-28T23:45:04.489Z,22.20
2018-07-28T23:47:33.302Z,22.20
2018-07-28T23:50:02.195Z,22.20
2018-07-28T23:52:31.028Z,22.20
2018-07-28T23:54:59.879Z,22.20
2018-07-28T23:57:28.719Z,22.20
2018-07-28T23:59:57.530Z,22.20
